sensor_id;sensor_type;location;lat;lon;timestamp;temperature;humidity
13326;DHT22;6732;51.044;3.746;2022-08-21T00:01:59;19.30;99.90
13326;DHT22;6732;51.044;3.746;2022-08-21T00:04:25;19.30;99.90
13326;DHT22;6732;51.044;3.746;2022-08-21T00:06:51;19.30;99.90
13326;DHT22;6732;51.044;3.746;2022-08-21T00:09:18;19.30;99.90
13326;DHT22;6732;51.044;3.746;2022-08-21T00:11:45;19.20;99.90
13326;DHT22;6732;51.044;3.746;2022-08-21T00:14:12;19.30;99.90
13326;DHT22;6732;51.044;3.746;2022-08-21T00:16:38;19.20;99.90
13326;DHT22;6732;51.044;3.746;2022-08-21T00:19:06;19.20;99.90
13326;DHT22;6732;51.044;3.746;2022-08-21T00:21:33;19.20;99.90
13326;DHT22;6732;51.044;3.746;2022-08-21T00:24:00;19.20;99.90
13326;DHT22;6732;51.044;3.746;2022-08-21T00:26:26;19.20;99.90
13326;DHT22;6732;51.044;3.746;2022-08-21T00:28:52;19.10;99.90
13326;DHT22;6732;51.044;3.746;2022-08-21T00:31:18;19.20;99.90
13326;DHT22;6732;51.044;3.746;2022-08-21T00:33:45;19.10;99.90
13326;DHT22;6732;51.044;3.746;2022-08-21T00:36:12;19.10;99.90
13326;DHT22;6732;51.044;3.746;2022-08-21T00:38:38;19.10;99.90
13326;DHT22;6732;51.044;3.746;2022-08-21T00:41:07;19.00;99.90
13326;DHT22;6732;51.044;3.746;2022-08-21T00:43:35;19.10;99.90
13326;DHT22;6732;51.044;3.746;2022-08-21T00:46:04;19.00;99.90
13326;DHT22;6732;51.044;3.746;2022-08-21T00:48:30;19.00;99.90
13326;DHT22;6732;51.044;3.746;2022-08-21T00:51:17;19.00;99.90
13326;DHT22;6732;51.044;3.746;2022-08-21T00:53:50;19.00;99.90
13326;DHT22;6732;51.044;3.746;2022-08-21T00:56:19;19.00;99.90
13326;DHT22;6732;51.044;3.746;2022-08-21T00:58:47;18.90;99.90
13326;DHT22;6732;51.044;3.746;2022-08-21T01:01:14;19.00;99.90
13326;DHT22;6732;51.044;3.746;2022-08-21T01:03:40;18.90;99.90
13326;DHT22;6732;51.044;3.746;2022-08-21T01:06:07;18.90;99.90
13326;DHT22;6732;51.044;3.746;2022-08-21T01:08:33;18.90;99.90
13326;DHT22;6732;51.044;3.746;2022-08-21T01:11:00;18.90;99.90
13326;DHT22;6732;51.044;3.746;2022-08-21T01:13:29;18.90;99.90
13326;DHT22;6732;51.044;3.746;2022-08-21T01:15:58;18.90;99.90
13326;DHT22;6732;51.044;3.746;2022-08-21T01:18:26;18.90;99.90
13326;DHT22;6732;51.044;3.746;2022-08-21T01:23:26;18.90;99.90
13326;DHT22;6732;51.044;3.746;2022-08-21T01:25:53;18.80;99.90
13326;DHT22;6732;51.044;3.746;2022-08-21T01:28:19;18.80;99.90
13326;DHT22;6732;51.044;3.746;2022-08-21T01:30:46;18.80;99.90
13326;DHT22;6732;51.044;3.746;2022-08-21T01:33:13;18.80;99.90
13326;DHT22;6732;51.044;3.746;2022-08-21T01:35:39;18.80;99.90
13326;DHT22;6732;51.044;3.746;2022-08-21T01:38:05;18.80;99.90
13326;DHT22;6732;51.044;3.746;2022-08-21T01:40:31;18.70;99.90
13326;DHT22;6732;51.044;3.746;2022-08-21T01:42:57;18.70;99.90
13326;DHT22;6732;51.044;3.746;2022-08-21T01:45:23;18.70;99.90
13326;DHT22;6732;51.044;3.746;2022-08-21T01:47:49;18.70;99.90
13326;DHT22;6732;51.044;3.746;2022-08-21T01:50:17;18.70;99.90
13326;DHT22;6732;51.044;3.746;2022-08-21T01:52:44;18.70;99.90
13326;DHT22;6732;51.044;3.746;2022-08-21T01:55:11;18.70;99.90
13326;DHT22;6732;51.044;3.746;2022-08-21T01:57:38;18.70;99.90
13326;DHT22;6732;51.044;3.746;2022-08-21T02:00:06;18.70;99.90
13326;DHT22;6732;51.044;3.746;2022-08-21T02:02:34;18.70;99.90
13326;DHT22;6732;51.044;3.746;2022-08-21T02:04:59;18.60;99.90
13326;DHT22;6732;51.044;3.746;2022-08-21T02:07:26;18.60;99.90
13326;DHT22;6732;51.044;3.746;2022-08-21T02:09:51;18.60;99.90
13326;DHT22;6732;51.044;3.746;2022-08-21T02:12:17;18.60;99.90
13326;DHT22;6732;51.044;3.746;2022-08-21T02:14:43;18.60;99.90
13326;DHT22;6732;51.044;3.746;2022-08-21T02:17:09;18.60;99.90
13326;DHT22;6732;51.044;3.746;2022-08-21T02:19:37;18.60;99.90
13326;DHT22;6732;51.044;3.746;2022-08-21T02:22:03;18.60;99.90
13326;DHT22;6732;51.044;3.746;2022-08-21T02:24:29;18.60;99.90
13326;DHT22;6732;51.044;3.746;2022-08-21T02:26:55;18.60;99.90
13326;DHT22;6732;51.044;3.746;2022-08-21T02:29:21;18.50;99.90
13326;DHT22;6732;51.044;3.746;2022-08-21T02:31:47;18.50;99.90
13326;DHT22;6732;51.044;3.746;2022-08-21T02:34:13;18.50;99.90
13326;DHT22;6732;51.044;3.746;2022-08-21T02:36:39;18.50;99.90
13326;DHT22;6732;51.044;3.746;2022-08-21T02:39:05;18.50;99.90
13326;DHT22;6732;51.044;3.746;2022-08-21T02:41:31;18.50;99.90
13326;DHT22;6732;51.044;3.746;2022-08-21T02:43:57;18.50;99.90
13326;DHT22;6732;51.044;3.746;2022-08-21T02:46:23;18.50;99.90
13326;DHT22;6732;51.044;3.746;2022-08-21T02:48:49;18.50;99.90
13326;DHT22;6732;51.044;3.746;2022-08-21T02:51:17;18.40;99.90
13326;DHT22;6732;51.044;3.746;2022-08-21T02:53:45;18.40;99.90
13326;DHT22;6732;51.044;3.746;2022-08-21T02:56:13;18.40;99.90
13326;DHT22;6732;51.044;3.746;2022-08-21T02:58:47;18.40;99.90
13326;DHT22;6732;51.044;3.746;2022-08-21T03:01:13;18.40;99.90
13326;DHT22;6732;51.044;3.746;2022-08-21T03:03:42;18.40;99.90
13326;DHT22;6732;51.044;3.746;2022-08-21T03:06:10;18.40;99.90
13326;DHT22;6732;51.044;3.746;2022-08-21T03:08:37;18.40;99.90
13326;DHT22;6732;51.044;3.746;2022-08-21T03:11:04;18.40;99.90
13326;DHT22;6732;51.044;3.746;2022-08-21T03:13:30;18.40;99.90
13326;DHT22;6732;51.044;3.746;2022-08-21T03:15:56;18.40;99.90
13326;DHT22;6732;51.044;3.746;2022-08-21T03:18:22;18.30;99.90
13326;DHT22;6732;51.044;3.746;2022-08-21T03:20:48;18.30;99.90
13326;DHT22;6732;51.044;3.746;2022-08-21T03:23:15;18.30;99.90
13326;DHT22;6732;51.044;3.746;2022-08-21T03:25:46;18.30;99.90
13326;DHT22;6732;51.044;3.746;2022-08-21T03:28:17;18.30;99.90
13326;DHT22;6732;51.044;3.746;2022-08-21T03:30:45;18.30;99.90
13326;DHT22;6732;51.044;3.746;2022-08-21T03:33:12;18.30;99.90
13326;DHT22;6732;51.044;3.746;2022-08-21T03:35:39;18.30;99.90
13326;DHT22;6732;51.044;3.746;2022-08-21T03:38:06;18.20;99.90
13326;DHT22;6732;51.044;3.746;2022-08-21T03:40:32;18.20;99.90
13326;DHT22;6732;51.044;3.746;2022-08-21T03:42:58;18.20;99.90
13326;DHT22;6732;51.044;3.746;2022-08-21T03:45:25;18.20;99.90
13326;DHT22;6732;51.044;3.746;2022-08-21T03:47:58;18.20;99.90
13326;DHT22;6732;51.044;3.746;2022-08-21T03:50:30;18.20;99.90
13326;DHT22;6732;51.044;3.746;2022-08-21T03:52:56;18.20;99.90
13326;DHT22;6732;51.044;3.746;2022-08-21T03:55:24;18.20;99.90
13326;DHT22;6732;51.044;3.746;2022-08-21T03:57:50;18.20;99.90
13326;DHT22;6732;51.044;3.746;2022-08-21T04:00:17;18.20;99.90
13326;DHT22;6732;51.044;3.746;2022-08-21T04:02:45;18.20;99.90
13326;DHT22;6732;51.044;3.746;2022-08-21T04:05:13;18.10;99.90
13326;DHT22;6732;51.044;3.746;2022-08-21T04:07:40;18.20;99.90
13326;DHT22;6732;51.044;3.746;2022-08-21T04:10:07;18.20;99.90
13326;DHT22;6732;51.044;3.746;2022-08-21T04:12:33;18.10;99.90
13326;DHT22;6732;51.044;3.746;2022-08-21T04:14:59;18.10;99.90
13326;DHT22;6732;51.044;3.746;2022-08-21T04:17:24;18.10;99.90
13326;DHT22;6732;51.044;3.746;2022-08-21T04:19:50;18.10;99.90
13326;DHT22;6732;51.044;3.746;2022-08-21T04:22:17;18.10;99.90
13326;DHT22;6732;51.044;3.746;2022-08-21T04:24:43;18.10;99.90
13326;DHT22;6732;51.044;3.746;2022-08-21T04:27:09;18.10;99.90
13326;DHT22;6732;51.044;3.746;2022-08-21T04:29:35;18.10;99.90
13326;DHT22;6732;51.044;3.746;2022-08-21T04:32:01;18.10;99.90
13326;DHT22;6732;51.044;3.746;2022-08-21T04:34:27;18.10;99.90
13326;DHT22;6732;51.044;3.746;2022-08-21T04:36:52;18.10;99.90
13326;DHT22;6732;51.044;3.746;2022-08-21T04:39:18;18.00;99.90
13326;DHT22;6732;51.044;3.746;2022-08-21T04:41:44;18.00;99.90
13326;DHT22;6732;51.044;3.746;2022-08-21T04:44:10;18.10;99.90
13326;DHT22;6732;51.044;3.746;2022-08-21T04:46:36;18.10;99.90
13326;DHT22;6732;51.044;3.746;2022-08-21T04:49:02;18.10;99.90
13326;DHT22;6732;51.044;3.746;2022-08-21T04:51:32;18.00;99.90
13326;DHT22;6732;51.044;3.746;2022-08-21T04:54:10;18.00;99.90
13326;DHT22;6732;51.044;3.746;2022-08-21T04:56:42;18.00;99.90
13326;DHT22;6732;51.044;3.746;2022-08-21T04:59:19;18.00;99.90
13326;DHT22;6732;51.044;3.746;2022-08-21T05:01:46;18.00;99.90
13326;DHT22;6732;51.044;3.746;2022-08-21T05:04:14;18.00;99.90
13326;DHT22;6732;51.044;3.746;2022-08-21T05:06:44;18.00;99.90
13326;DHT22;6732;51.044;3.746;2022-08-21T05:09:15;18.00;99.90
13326;DHT22;6732;51.044;3.746;2022-08-21T05:11:41;18.00;99.90
13326;DHT22;6732;51.044;3.746;2022-08-21T05:14:09;18.00;99.90
13326;DHT22;6732;51.044;3.746;2022-08-21T05:16:35;18.00;99.90
13326;DHT22;6732;51.044;3.746;2022-08-21T05:19:01;17.90;99.90
13326;DHT22;6732;51.044;3.746;2022-08-21T05:21:27;17.90;99.90
13326;DHT22;6732;51.044;3.746;2022-08-21T05:23:53;17.90;99.90
13326;DHT22;6732;51.044;3.746;2022-08-21T05:26:19;17.90;99.90
13326;DHT22;6732;51.044;3.746;2022-08-21T05:28:45;17.90;99.90
13326;DHT22;6732;51.044;3.746;2022-08-21T05:31:11;17.90;99.90
13326;DHT22;6732;51.044;3.746;2022-08-21T05:33:37;17.90;99.90
13326;DHT22;6732;51.044;3.746;2022-08-21T05:36:03;17.90;99.90
13326;DHT22;6732;51.044;3.746;2022-08-21T05:38:29;17.90;99.90
13326;DHT22;6732;51.044;3.746;2022-08-21T05:40:55;17.90;99.90
13326;DHT22;6732;51.044;3.746;2022-08-21T05:43:21;17.90;99.90
13326;DHT22;6732;51.044;3.746;2022-08-21T05:45:47;17.90;99.90
13326;DHT22;6732;51.044;3.746;2022-08-21T05:48:16;17.90;99.90
13326;DHT22;6732;51.044;3.746;2022-08-21T05:50:43;17.90;99.90
13326;DHT22;6732;51.044;3.746;2022-08-21T05:53:10;17.90;99.90
13326;DHT22;6732;51.044;3.746;2022-08-21T05:55:37;17.90;99.90
13326;DHT22;6732;51.044;3.746;2022-08-21T05:58:04;17.90;99.90
13326;DHT22;6732;51.044;3.746;2022-08-21T06:00:30;17.90;99.90
13326;DHT22;6732;51.044;3.746;2022-08-21T06:02:58;17.90;99.90
13326;DHT22;6732;51.044;3.746;2022-08-21T06:05:24;17.90;99.90
13326;DHT22;6732;51.044;3.746;2022-08-21T06:07:49;17.90;99.90
13326;DHT22;6732;51.044;3.746;2022-08-21T06:10:15;17.90;99.90
13326;DHT22;6732;51.044;3.746;2022-08-21T06:12:41;17.90;99.90
13326;DHT22;6732;51.044;3.746;2022-08-21T06:15:07;17.90;99.90
13326;DHT22;6732;51.044;3.746;2022-08-21T06:17:33;18.00;99.90
13326;DHT22;6732;51.044;3.746;2022-08-21T06:19:59;17.90;99.90
13326;DHT22;6732;51.044;3.746;2022-08-21T06:22:25;17.90;99.90
13326;DHT22;6732;51.044;3.746;2022-08-21T06:24:51;17.90;99.90
13326;DHT22;6732;51.044;3.746;2022-08-21T06:27:17;17.90;99.90
13326;DHT22;6732;51.044;3.746;2022-08-21T06:29:43;18.00;99.90
13326;DHT22;6732;51.044;3.746;2022-08-21T06:32:11;18.00;99.90
13326;DHT22;6732;51.044;3.746;2022-08-21T06:34:39;18.00;99.90
13326;DHT22;6732;51.044;3.746;2022-08-21T06:37:06;18.00;99.90
13326;DHT22;6732;51.044;3.746;2022-08-21T06:39:33;18.00;99.90
13326;DHT22;6732;51.044;3.746;2022-08-21T06:41:59;18.00;99.90
13326;DHT22;6732;51.044;3.746;2022-08-21T06:44:25;18.00;99.90
13326;DHT22;6732;51.044;3.746;2022-08-21T06:46:51;18.10;99.90
13326;DHT22;6732;51.044;3.746;2022-08-21T06:49:17;18.10;99.90
13326;DHT22;6732;51.044;3.746;2022-08-21T06:51:43;18.10;99.90
13326;DHT22;6732;51.044;3.746;2022-08-21T06:54:09;18.10;99.90
13326;DHT22;6732;51.044;3.746;2022-08-21T06:56:36;18.10;99.90
13326;DHT22;6732;51.044;3.746;2022-08-21T06:59:04;18.10;99.90
13326;DHT22;6732;51.044;3.746;2022-08-21T07:01:32;18.20;99.90
13326;DHT22;6732;51.044;3.746;2022-08-21T07:03:58;18.20;99.90
13326;DHT22;6732;51.044;3.746;2022-08-21T07:06:24;18.20;99.90
13326;DHT22;6732;51.044;3.746;2022-08-21T07:08:50;18.20;99.90
13326;DHT22;6732;51.044;3.746;2022-08-21T07:11:22;18.30;99.90
13326;DHT22;6732;51.044;3.746;2022-08-21T07:13:48;18.30;99.90
13326;DHT22;6732;51.044;3.746;2022-08-21T07:16:16;18.30;99.90
13326;DHT22;6732;51.044;3.746;2022-08-21T07:18:42;18.30;99.90
13326;DHT22;6732;51.044;3.746;2022-08-21T07:21:09;18.40;99.90
13326;DHT22;6732;51.044;3.746;2022-08-21T07:23:38;18.40;99.90
13326;DHT22;6732;51.044;3.746;2022-08-21T07:26:05;18.40;99.90
13326;DHT22;6732;51.044;3.746;2022-08-21T07:28:32;18.50;99.90
13326;DHT22;6732;51.044;3.746;2022-08-21T07:30:59;18.50;99.90
13326;DHT22;6732;51.044;3.746;2022-08-21T07:33:27;18.50;99.90
13326;DHT22;6732;51.044;3.746;2022-08-21T07:35:56;18.50;99.90
13326;DHT22;6732;51.044;3.746;2022-08-21T07:38:22;18.60;99.90
13326;DHT22;6732;51.044;3.746;2022-08-21T07:40:49;18.60;99.90
13326;DHT22;6732;51.044;3.746;2022-08-21T07:43:16;18.60;99.90
13326;DHT22;6732;51.044;3.746;2022-08-21T07:45:44;18.70;99.90
13326;DHT22;6732;51.044;3.746;2022-08-21T07:48:10;18.70;99.90
13326;DHT22;6732;51.044;3.746;2022-08-21T07:50:37;18.70;99.90
13326;DHT22;6732;51.044;3.746;2022-08-21T07:53:03;18.70;99.90
13326;DHT22;6732;51.044;3.746;2022-08-21T07:55:29;18.80;99.90
13326;DHT22;6732;51.044;3.746;2022-08-21T07:57:55;18.80;99.90
13326;DHT22;6732;51.044;3.746;2022-08-21T08:00:24;18.80;99.90
13326;DHT22;6732;51.044;3.746;2022-08-21T08:02:51;18.80;99.90
13326;DHT22;6732;51.044;3.746;2022-08-21T08:05:19;18.90;99.90
13326;DHT22;6732;51.044;3.746;2022-08-21T08:07:46;18.90;99.90
13326;DHT22;6732;51.044;3.746;2022-08-21T08:10:13;18.90;99.90
13326;DHT22;6732;51.044;3.746;2022-08-21T08:12:41;19.00;99.90
13326;DHT22;6732;51.044;3.746;2022-08-21T08:15:10;19.00;99.90
13326;DHT22;6732;51.044;3.746;2022-08-21T08:17:37;19.00;99.90
13326;DHT22;6732;51.044;3.746;2022-08-21T08:20:08;19.00;99.90
13326;DHT22;6732;51.044;3.746;2022-08-21T08:22:36;19.10;99.90
13326;DHT22;6732;51.044;3.746;2022-08-21T08:25:03;19.10;99.90
13326;DHT22;6732;51.044;3.746;2022-08-21T08:27:30;19.10;99.90
13326;DHT22;6732;51.044;3.746;2022-08-21T08:29:56;19.10;99.90
13326;DHT22;6732;51.044;3.746;2022-08-21T08:32:23;19.20;99.90
13326;DHT22;6732;51.044;3.746;2022-08-21T08:34:49;19.20;99.90
13326;DHT22;6732;51.044;3.746;2022-08-21T08:37:18;19.20;99.90
13326;DHT22;6732;51.044;3.746;2022-08-21T08:39:44;19.30;99.90
13326;DHT22;6732;51.044;3.746;2022-08-21T08:42:18;19.30;99.90
13326;DHT22;6732;51.044;3.746;2022-08-21T08:44:46;19.30;99.90
13326;DHT22;6732;51.044;3.746;2022-08-21T08:47:15;19.40;99.90
13326;DHT22;6732;51.044;3.746;2022-08-21T08:50:03;19.40;99.90
13326;DHT22;6732;51.044;3.746;2022-08-21T08:52:33;19.40;99.90
13326;DHT22;6732;51.044;3.746;2022-08-21T08:55:07;19.50;99.90
13326;DHT22;6732;51.044;3.746;2022-08-21T08:57:35;19.50;99.90
13326;DHT22;6732;51.044;3.746;2022-08-21T09:00:07;19.50;99.90
13326;DHT22;6732;51.044;3.746;2022-08-21T09:02:39;19.60;99.90
13326;DHT22;6732;51.044;3.746;2022-08-21T09:05:07;19.60;99.90
13326;DHT22;6732;51.044;3.746;2022-08-21T09:07:44;19.70;99.90
13326;DHT22;6732;51.044;3.746;2022-08-21T09:10:19;19.70;99.90
13326;DHT22;6732;51.044;3.746;2022-08-21T09:12:59;19.70;99.90
13326;DHT22;6732;51.044;3.746;2022-08-21T09:18:24;19.80;99.90
13326;DHT22;6732;51.044;3.746;2022-08-21T09:21:15;19.80;99.90
13326;DHT22;6732;51.044;3.746;2022-08-21T09:24:16;19.80;99.90
13326;DHT22;6732;51.044;3.746;2022-08-21T09:29:20;19.90;99.90
13326;DHT22;6732;51.044;3.746;2022-08-21T09:31:47;19.90;99.90
13326;DHT22;6732;51.044;3.746;2022-08-21T09:34:28;19.90;99.90
13326;DHT22;6732;51.044;3.746;2022-08-21T09:36:55;20.00;99.90
13326;DHT22;6732;51.044;3.746;2022-08-21T09:39:32;20.00;99.90
13326;DHT22;6732;51.044;3.746;2022-08-21T09:42:05;20.10;99.90
13326;DHT22;6732;51.044;3.746;2022-08-21T09:44:35;20.10;99.90
13326;DHT22;6732;51.044;3.746;2022-08-21T09:47:10;20.10;99.90
13326;DHT22;6732;51.044;3.746;2022-08-21T09:49:41;20.20;99.90
13326;DHT22;6732;51.044;3.746;2022-08-21T09:52:22;20.20;99.90
13326;DHT22;6732;51.044;3.746;2022-08-21T09:54:54;20.20;99.90
13326;DHT22;6732;51.044;3.746;2022-08-21T09:57:26;20.30;99.90
13326;DHT22;6732;51.044;3.746;2022-08-21T10:00:31;20.30;99.90
13326;DHT22;6732;51.044;3.746;2022-08-21T10:03:17;20.30;99.90
13326;DHT22;6732;51.044;3.746;2022-08-21T10:08:22;20.40;99.90
13326;DHT22;6732;51.044;3.746;2022-08-21T10:11:01;20.40;99.90
13326;DHT22;6732;51.044;3.746;2022-08-21T10:13:30;20.40;99.90
13326;DHT22;6732;51.044;3.746;2022-08-21T10:18:42;20.50;99.90
13326;DHT22;6732;51.044;3.746;2022-08-21T10:21:24;20.60;99.90
13326;DHT22;6732;51.044;3.746;2022-08-21T10:29:29;20.70;99.90
13326;DHT22;6732;51.044;3.746;2022-08-21T10:34:55;20.80;99.90
13326;DHT22;6732;51.044;3.746;2022-08-21T10:45:44;20.90;99.90
13326;DHT22;6732;51.044;3.746;2022-08-21T10:48:43;20.90;99.90
13326;DHT22;6732;51.044;3.746;2022-08-21T10:51:20;20.90;99.90
13326;DHT22;6732;51.044;3.746;2022-08-21T10:53:59;21.00;99.90
13326;DHT22;6732;51.044;3.746;2022-08-21T10:56:33;21.00;99.90
13326;DHT22;6732;51.044;3.746;2022-08-21T10:59:41;21.00;99.90
13326;DHT22;6732;51.044;3.746;2022-08-21T11:07:55;21.10;99.90
13326;DHT22;6732;51.044;3.746;2022-08-21T11:10:31;21.10;99.90
13326;DHT22;6732;51.044;3.746;2022-08-21T11:13:06;21.20;99.90
13326;DHT22;6732;51.044;3.746;2022-08-21T11:18:28;21.20;99.90
13326;DHT22;6732;51.044;3.746;2022-08-21T11:21:12;21.20;99.90
13326;DHT22;6732;51.044;3.746;2022-08-21T11:23:48;21.30;99.90
13326;DHT22;6732;51.044;3.746;2022-08-21T11:26:32;21.30;99.90
13326;DHT22;6732;51.044;3.746;2022-08-21T11:29:08;21.30;99.90
13326;DHT22;6732;51.044;3.746;2022-08-21T11:37:32;21.50;99.90
13326;DHT22;6732;51.044;3.746;2022-08-21T11:45:47;21.60;99.90
13326;DHT22;6732;51.044;3.746;2022-08-21T11:48:41;21.60;99.90
13326;DHT22;6732;51.044;3.746;2022-08-21T11:51:17;21.60;99.90
13326;DHT22;6732;51.044;3.746;2022-08-21T11:53:51;21.60;99.90
13326;DHT22;6732;51.044;3.746;2022-08-21T11:56:26;21.60;99.90
13326;DHT22;6732;51.044;3.746;2022-08-21T11:59:01;21.70;99.90
13326;DHT22;6732;51.044;3.746;2022-08-21T12:01:33;21.70;99.90
13326;DHT22;6732;51.044;3.746;2022-08-21T12:06:47;21.70;99.90
13326;DHT22;6732;51.044;3.746;2022-08-21T12:09:51;21.80;99.90
13326;DHT22;6732;51.044;3.746;2022-08-21T12:12:35;21.80;99.90
13326;DHT22;6732;51.044;3.746;2022-08-21T12:15:15;21.80;99.90
13326;DHT22;6732;51.044;3.746;2022-08-21T12:28:10;21.80;99.90
13326;DHT22;6732;51.044;3.746;2022-08-21T12:30:41;21.90;99.90
13326;DHT22;6732;51.044;3.746;2022-08-21T12:33:28;21.80;99.90
13326;DHT22;6732;51.044;3.746;2022-08-21T12:36:17;21.80;99.90
13326;DHT22;6732;51.044;3.746;2022-08-21T12:39:04;21.90;99.90
13326;DHT22;6732;51.044;3.746;2022-08-21T12:41:41;21.90;99.90
13326;DHT22;6732;51.044;3.746;2022-08-21T12:44:12;21.90;99.90
13326;DHT22;6732;51.044;3.746;2022-08-21T12:46:51;21.90;99.90
13326;DHT22;6732;51.044;3.746;2022-08-21T12:49:35;21.90;99.90
13326;DHT22;6732;51.044;3.746;2022-08-21T12:55:13;22.00;99.90
13326;DHT22;6732;51.044;3.746;2022-08-21T12:57:41;22.00;99.90
13326;DHT22;6732;51.044;3.746;2022-08-21T13:00:09;22.00;99.90
13326;DHT22;6732;51.044;3.746;2022-08-21T13:02:43;22.00;99.90
13326;DHT22;6732;51.044;3.746;2022-08-21T13:05:14;21.90;99.90
13326;DHT22;6732;51.044;3.746;2022-08-21T13:07:46;21.90;99.90
13326;DHT22;6732;51.044;3.746;2022-08-21T13:12:42;21.90;99.90
13326;DHT22;6732;51.044;3.746;2022-08-21T13:15:09;21.90;99.90
13326;DHT22;6732;51.044;3.746;2022-08-21T13:17:41;22.00;99.90
13326;DHT22;6732;51.044;3.746;2022-08-21T13:20:22;22.00;99.90
13326;DHT22;6732;51.044;3.746;2022-08-21T13:22:49;22.00;99.90
13326;DHT22;6732;51.044;3.746;2022-08-21T13:25:18;22.10;99.90
13326;DHT22;6732;51.044;3.746;2022-08-21T13:27:57;22.10;99.90
13326;DHT22;6732;51.044;3.746;2022-08-21T13:30:23;22.20;99.90
13326;DHT22;6732;51.044;3.746;2022-08-21T13:32:58;22.20;99.90
13326;DHT22;6732;51.044;3.746;2022-08-21T13:35:31;22.20;99.90
13326;DHT22;6732;51.044;3.746;2022-08-21T13:38:00;22.30;99.90
13326;DHT22;6732;51.044;3.746;2022-08-21T13:40:38;22.30;99.90
13326;DHT22;6732;51.044;3.746;2022-08-21T13:43:12;22.30;99.90
13326;DHT22;6732;51.044;3.746;2022-08-21T13:45:39;22.30;99.90
13326;DHT22;6732;51.044;3.746;2022-08-21T13:48:08;22.30;99.90
13326;DHT22;6732;51.044;3.746;2022-08-21T13:50:36;22.30;99.90
13326;DHT22;6732;51.044;3.746;2022-08-21T13:53:06;22.30;99.90
13326;DHT22;6732;51.044;3.746;2022-08-21T13:55:40;22.30;99.90
13326;DHT22;6732;51.044;3.746;2022-08-21T13:58:08;22.30;99.90
13326;DHT22;6732;51.044;3.746;2022-08-21T14:00:51;22.30;99.90
13326;DHT22;6732;51.044;3.746;2022-08-21T14:03:59;22.30;99.90
13326;DHT22;6732;51.044;3.746;2022-08-21T14:06:32;22.30;99.90
13326;DHT22;6732;51.044;3.746;2022-08-21T14:09:01;22.30;99.90
13326;DHT22;6732;51.044;3.746;2022-08-21T14:11:33;22.30;99.90
13326;DHT22;6732;51.044;3.746;2022-08-21T14:14:12;22.30;99.90
13326;DHT22;6732;51.044;3.746;2022-08-21T14:16:45;22.30;99.90
13326;DHT22;6732;51.044;3.746;2022-08-21T14:19:23;22.30;99.90
13326;DHT22;6732;51.044;3.746;2022-08-21T14:21:49;22.30;99.90
13326;DHT22;6732;51.044;3.746;2022-08-21T14:26:53;22.30;99.90
13326;DHT22;6732;51.044;3.746;2022-08-21T14:29:22;22.30;99.90
13326;DHT22;6732;51.044;3.746;2022-08-21T14:31:56;22.30;99.90
13326;DHT22;6732;51.044;3.746;2022-08-21T14:34:28;22.30;99.90
13326;DHT22;6732;51.044;3.746;2022-08-21T14:36:55;22.30;99.90
13326;DHT22;6732;51.044;3.746;2022-08-21T14:39:22;22.30;99.90
13326;DHT22;6732;51.044;3.746;2022-08-21T14:41:48;22.40;99.90
13326;DHT22;6732;51.044;3.746;2022-08-21T14:44:16;22.30;99.90
13326;DHT22;6732;51.044;3.746;2022-08-21T14:46:43;22.40;99.90
13326;DHT22;6732;51.044;3.746;2022-08-21T14:49:10;22.40;99.90
13326;DHT22;6732;51.044;3.746;2022-08-21T14:51:37;22.40;99.90
13326;DHT22;6732;51.044;3.746;2022-08-21T14:54:05;22.40;99.90
13326;DHT22;6732;51.044;3.746;2022-08-21T14:56:32;22.40;99.90
13326;DHT22;6732;51.044;3.746;2022-08-21T14:59:05;22.40;99.90
13326;DHT22;6732;51.044;3.746;2022-08-21T15:01:34;22.40;99.90
13326;DHT22;6732;51.044;3.746;2022-08-21T15:04:00;22.40;99.90
13326;DHT22;6732;51.044;3.746;2022-08-21T15:06:26;22.40;99.90
13326;DHT22;6732;51.044;3.746;2022-08-21T15:08:52;22.40;99.90
13326;DHT22;6732;51.044;3.746;2022-08-21T15:11:20;22.40;99.90
13326;DHT22;6732;51.044;3.746;2022-08-21T15:13:47;22.40;99.90
13326;DHT22;6732;51.044;3.746;2022-08-21T15:16:16;22.40;99.90
13326;DHT22;6732;51.044;3.746;2022-08-21T15:18:42;22.40;99.90
13326;DHT22;6732;51.044;3.746;2022-08-21T15:21:08;22.40;99.90
13326;DHT22;6732;51.044;3.746;2022-08-21T15:23:34;22.40;99.90
13326;DHT22;6732;51.044;3.746;2022-08-21T15:26:00;22.40;99.90
13326;DHT22;6732;51.044;3.746;2022-08-21T15:28:26;22.40;99.90
13326;DHT22;6732;51.044;3.746;2022-08-21T15:30:52;22.40;99.90
13326;DHT22;6732;51.044;3.746;2022-08-21T15:33:18;22.40;99.90
13326;DHT22;6732;51.044;3.746;2022-08-21T15:35:44;22.40;99.90
13326;DHT22;6732;51.044;3.746;2022-08-21T15:38:12;22.40;99.90
13326;DHT22;6732;51.044;3.746;2022-08-21T15:40:40;22.40;99.90
13326;DHT22;6732;51.044;3.746;2022-08-21T15:45:47;22.40;99.90
13326;DHT22;6732;51.044;3.746;2022-08-21T15:48:13;22.40;99.90
13326;DHT22;6732;51.044;3.746;2022-08-21T15:50:39;22.50;99.90
13326;DHT22;6732;51.044;3.746;2022-08-21T15:53:05;22.50;99.90
13326;DHT22;6732;51.044;3.746;2022-08-21T15:55:33;22.50;99.90
13326;DHT22;6732;51.044;3.746;2022-08-21T15:57:59;22.50;99.90
13326;DHT22;6732;51.044;3.746;2022-08-21T16:00:25;22.50;99.90
13326;DHT22;6732;51.044;3.746;2022-08-21T16:02:54;22.50;99.90
13326;DHT22;6732;51.044;3.746;2022-08-21T16:05:21;22.50;99.90
13326;DHT22;6732;51.044;3.746;2022-08-21T16:07:48;22.50;99.90
13326;DHT22;6732;51.044;3.746;2022-08-21T16:10:17;22.50;99.90
13326;DHT22;6732;51.044;3.746;2022-08-21T16:12:47;22.50;99.90
13326;DHT22;6732;51.044;3.746;2022-08-21T16:15:16;22.50;99.90
13326;DHT22;6732;51.044;3.746;2022-08-21T16:17:44;22.50;99.90
13326;DHT22;6732;51.044;3.746;2022-08-21T16:20:21;22.50;99.90
13326;DHT22;6732;51.044;3.746;2022-08-21T16:22:48;22.50;99.90
13326;DHT22;6732;51.044;3.746;2022-08-21T16:25:14;22.50;99.90
13326;DHT22;6732;51.044;3.746;2022-08-21T16:27:44;22.50;99.90
13326;DHT22;6732;51.044;3.746;2022-08-21T16:30:12;22.50;99.90
13326;DHT22;6732;51.044;3.746;2022-08-21T16:32:40;22.50;99.90
13326;DHT22;6732;51.044;3.746;2022-08-21T16:35:07;22.50;99.90
13326;DHT22;6732;51.044;3.746;2022-08-21T16:37:35;22.50;99.90
13326;DHT22;6732;51.044;3.746;2022-08-21T16:40:01;22.50;99.90
13326;DHT22;6732;51.044;3.746;2022-08-21T16:42:27;22.50;99.90
13326;DHT22;6732;51.044;3.746;2022-08-21T16:44:54;22.50;99.90
13326;DHT22;6732;51.044;3.746;2022-08-21T16:47:20;22.50;99.90
13326;DHT22;6732;51.044;3.746;2022-08-21T16:49:46;22.50;99.90
13326;DHT22;6732;51.044;3.746;2022-08-21T16:52:12;22.50;99.90
13326;DHT22;6732;51.044;3.746;2022-08-21T16:54:38;22.50;99.90
13326;DHT22;6732;51.044;3.746;2022-08-21T16:57:05;22.50;99.90
13326;DHT22;6732;51.044;3.746;2022-08-21T16:59:31;22.40;99.90
13326;DHT22;6732;51.044;3.746;2022-08-21T17:01:57;22.40;99.90
13326;DHT22;6732;51.044;3.746;2022-08-21T17:04:23;22.40;99.90
13326;DHT22;6732;51.044;3.746;2022-08-21T17:06:50;22.40;99.90
13326;DHT22;6732;51.044;3.746;2022-08-21T17:09:17;22.40;99.90
13326;DHT22;6732;51.044;3.746;2022-08-21T17:11:46;22.40;99.90
13326;DHT22;6732;51.044;3.746;2022-08-21T17:14:18;22.40;99.90